Wetterdaten: Woche 18.01.10 - 24.01.10 (KW3)
Datum Zeit Temp. Innen Temp. Aussen UV X Diff Temp. Feuchte Inne Feuchte Auss Sonnenschein Luftdruck Regen ab 0,1 Wind Sonnenschein Windben
18.01.2010 00:00 11,6 C 4,8 C 0,0 UV-I 0,0 C 57 % 93 % 0 % 1020,5 hPa 0,0 l/m 3,0 km/h (1 Bft) 0,00 h 5,0 km/h (1 Bft)
18.01.2010 01:00 11,6 C 4,8 C 0,0 UV-I 0,0 C 57 % 93 % 0 % 1020,9 hPa 0,0 l/m 2,1 km/h (1 Bft) 0,00 h 4,5 km/h (1 Bft)
18.01.2010 02:00 11,6 C 4,8 C 0,0 UV-I 0,0 C 57 % 93 % 0 % 1021,0 hPa 0,0 l/m 2,2 km/h (1 Bft) 0,00 h 3,9 km/h (1 Bft)
18.01.2010 03:00 11,6 C 4,8 C 0,0 UV-I 0,0 C 57 % 93 % 0 % 1021,7 hPa 0,0 l/m 2,1 km/h (1 Bft) 0,00 h 3,5 km/h (1 Bft)
18.01.2010 04:00 11,6 C 4,8 C 0,0 UV-I 0,0 C 57 % 93 % 0 % 1021,8 hPa 0,0 l/m 0,5 km/h (0 Bft) 0,00 h 1,2 km/h (1 Bft)
18.01.2010 05:00 11,6 C 4,6 C 0,0 UV-I 0,0 C 57 % 93 % 0 % 1022,3 hPa 0,0 l/m 1,5 km/h (1 Bft) 0,00 h 2,3 km/h (1 Bft)
18.01.2010 06:00 11,6 C 4,5 C 0,0 UV-I 0,0 C 58 % 94 % 0 % 1022,4 hPa 0,0 l/m 1,7 km/h (1 Bft) 0,00 h 3,1 km/h (1 Bft)
18.01.2010 07:00 11,6 C 4,4 C 0,0 UV-I 0,0 C 58 % 94 % 0 % 1022,8 hPa 0,0 l/m 2,3 km/h (1 Bft) 0,00 h 4,2 km/h (1 Bft)
18.01.2010 08:00 11,6 C 4,3 C 0,0 UV-I 0,0 C 58 % 94 % 0 % 1023,2 hPa 0,0 l/m 1,9 km/h (1 Bft) 0,00 h 3,5 km/h (1 Bft)
18.01.2010 09:00 11,6 C 4,3 C 0,0 UV-I 0,0 C 58 % 94 % 0 % 1023,3 hPa 0,0 l/m 2,1 km/h (1 Bft) 0,00 h 5,0 km/h (1 Bft)
18.01.2010 10:00 11,7 C 4,3 C 0,0 UV-I 0,0 C 58 % 95 % 0 % 1024,0 hPa 0,0 l/m 3,0 km/h (1 Bft) 0,00 h 5,3 km/h (1 Bft)
18.01.2010 11:00 11,8 C 4,4 C 0,2 UV-I 0,1 C 57 % 94 % 2 % 1024,2 hPa 0,0 l/m 3,9 km/h (1 Bft) 0,00 h 7,1 km/h (2 Bft)
18.01.2010 12:00 12,0 C 4,5 C 0,2 UV-I 0,0 C 57 % 94 % 1 % 1024,2 hPa 0,0 l/m 4,7 km/h (1 Bft) 0,00 h 7,3 km/h (2 Bft)
18.01.2010 13:00 12,0 C 4,9 C 0,1 UV-I 0,3 C 57 % 93 % 8 % 1024,0 hPa 0,0 l/m 4,0 km/h (1 Bft) 0,00 h 7,2 km/h (2 Bft)
18.01.2010 14:00 12,2 C 5,2 C 0,0 UV-I 0,1 C 56 % 91 % 4 % 1023,6 hPa 0,0 l/m 5,3 km/h (1 Bft) 0,00 h 9,0 km/h (2 Bft)
18.01.2010 15:00 12,0 C 5,1 C 0,0 UV-I 0,0 C 56 % 91 % 0 % 1023,8 hPa 0,0 l/m 3,1 km/h (1 Bft) 0,00 h 7,1 km/h (2 Bft)
18.01.2010 16:00 11,9 C 5,0 C 0,0 UV-I 0,0 C 57 % 92 % 0 % 1023,9 hPa 0,0 l/m 2,4 km/h (1 Bft) 0,00 h 4,8 km/h (1 Bft)
18.01.2010 17:00 11,9 C 4,9 C 0,0 UV-I 0,0 C 57 % 93 % 0 % 1024,1 hPa 0,0 l/m 3,1 km/h (1 Bft) 0,00 h 5,9 km/h (2 Bft)
18.01.2010 18:00 11,9 C 4,9 C 0,0 UV-I 0,0 C 58 % 93 % 0 % 1024,0 hPa 0,0 l/m 2,7 km/h (1 Bft) 0,00 h 5,7 km/h (1 Bft)
18.01.2010 19:00 11,9 C 4,9 C 0,0 UV-I 0,0 C 58 % 93 % 0 % 1023,9 hPa 0,0 l/m 3,6 km/h (1 Bft) 0,00 h 6,5 km/h (2 Bft)
18.01.2010 20:00 11,9 C 4,9 C 0,0 UV-I 0,0 C 58 % 93 % 0 % 1023,8 hPa 0,0 l/m 3,3 km/h (1 Bft) 0,00 h 5,2 km/h (1 Bft)
18.01.2010 21:00 12,0 C 4,9 C 0,0 UV-I 0,0 C 57 % 93 % 0 % 1023,7 hPa 0,0 l/m 4,0 km/h (1 Bft) 0,00 h 6,9 km/h (2 Bft)
18.01.2010 22:00 12,0 C 4,8 C 0,0 UV-I 0,0 C 57 % 93 % 0 % 1023,1 hPa 0,0 l/m 4,2 km/h (1 Bft) 0,00 h 7,7 km/h (2 Bft)
18.01.2010 23:00 11,9 C 4,9 C 0,0 UV-I 0,0 C 57 % 93 % 0 % 1023,2 hPa 0,0 l/m 4,2 km/h (1 Bft) 0,00 h 7,6 km/h (2 Bft)
19.01.2010 00:00 11,9 C 4,8 C 0,0 UV-I 0,0 C 58 % 93 % 0 % 1023,1 hPa 0,0 l/m 4,0 km/h (1 Bft) 0,00 h 7,7 km/h (2 Bft)
19.01.2010 01:00 12,0 C 4,8 C 0,0 UV-I 0,0 C 58 % 93 % 0 % 1022,8 hPa 0,0 l/m 4,1 km/h (1 Bft) 0,00 h 7,5 km/h (2 Bft)
19.01.2010 02:00 11,9 C 4,8 C 0,0 UV-I 0,0 C 58 % 94 % 0 % 1022,8 hPa 0,0 l/m 2,7 km/h (1 Bft) 0,00 h 6,5 km/h (2 Bft)
19.01.2010 03:00 11,9 C 4,7 C 0,0 UV-I 0,0 C 58 % 94 % 0 % 1022,7 hPa 0,0 l/m 2,9 km/h (1 Bft) 0,00 h 5,0 km/h (1 Bft)
19.01.2010 04:00 11,9 C 4,6 C 0,0 UV-I 0,0 C 58 % 94 % 0 % 1022,3 hPa 0,0 l/m 2,2 km/h (1 Bft) 0,00 h 4,9 km/h (1 Bft)
19.01.2010 05:00 11,9 C 4,5 C 0,0 UV-I 0,0 C 59 % 95 % 0 % 1022,1 hPa 0,4 l/m 1,1 km/h (0 Bft) 0,00 h 3,2 km/h (1 Bft)
19.01.2010 06:00 11,9 C 4,4 C 0,0 UV-I 0,0 C 59 % 95 % 0 % 1021,9 hPa 0,4 l/m 1,1 km/h (1 Bft) 0,00 h 2,5 km/h (1 Bft)
19.01.2010 07:00 12,0 C 4,4 C 0,0 UV-I 0,0 C 59 % 96 % 0 % 1021,9 hPa 0,0 l/m 0,7 km/h (0 Bft) 0,00 h 1,3 km/h (1 Bft)
19.01.2010 08:00 12,0 C 4,4 C 0,0 UV-I 0,0 C 59 % 96 % 0 % 1021,8 hPa 0,0 l/m 1,4 km/h (1 Bft) 0,00 h 3,1 km/h (1 Bft)
19.01.2010 09:00 12,0 C 4,4 C 0,0 UV-I 0,0 C 59 % 96 % 0 % 1022,1 hPa 0,0 l/m 1,3 km/h (1 Bft) 0,00 h 4,0 km/h (1 Bft)
19.01.2010 10:00 12,1 C 4,6 C 0,1 UV-I 0,1 C 59 % 96 % 2 % 1022,1 hPa 0,0 l/m 2,1 km/h (1 Bft) 0,00 h 4,6 km/h (1 Bft)
19.01.2010 11:00 12,3 C 5,0 C 0,2 UV-I 0,6 C 59 % 96 % 16 % 1022,0 hPa 0,0 l/m 1,1 km/h (0 Bft) 0,00 h 2,9 km/h (1 Bft)
19.01.2010 12:00 12,4 C 5,3 C 0,1 UV-I 0,3 C 59 % 96 % 10 % 1021,6 hPa 0,0 l/m 0,7 km/h (0 Bft) 0,00 h 2,0 km/h (1 Bft)
19.01.2010 13:00 12,3 C 5,5 C 0,1 UV-I 0,2 C 59 % 95 % 5 % 1021,4 hPa 0,0 l/m 0,3 km/h (0 Bft) 0,00 h 0,8 km/h (0 Bft)
19.01.2010 14:00 12,4 C 5,7 C 0,0 UV-I 0,0 C 59 % 95 % 1 % 1020,8 hPa 0,0 l/m 0,4 km/h (0 Bft) 0,00 h 1,0 km/h (0 Bft)
19.01.2010 15:00 12,4 C 5,7 C 0,0 UV-I 0,0 C 59 % 94 % 0 % 1020,5 hPa 0,0 l/m 0,6 km/h (0 Bft) 0,00 h 1,7 km/h (1 Bft)
19.01.2010 16:00 12,4 C 5,7 C 0,0 UV-I 0,0 C 58 % 93 % 0 % 1020,3 hPa 0,0 l/m 0,1 km/h (0 Bft) 0,00 h 0,6 km/h (0 Bft)
19.01.2010 17:00 12,4 C 5,4 C 0,0 UV-I 0,0 C 58 % 93 % 0 % 1020,2 hPa 0,0 l/m 0,1 km/h (0 Bft) 0,00 h 0,2 km/h (0 Bft)
19.01.2010 18:00 12,4 C 5,1 C 0,0 UV-I 0,0 C 58 % 94 % 0 % 1019,9 hPa 0,0 l/m 0,1 km/h (0 Bft) 0,00 h 0,4 km/h (0 Bft)
19.01.2010 19:00 12,4 C 4,8 C 0,0 UV-I 0,0 C 58 % 94 % 0 % 1019,9 hPa 0,0 l/m 0,0 km/h (0 Bft) 0,00 h 0,1 km/h (0 Bft)
19.01.2010 20:00 12,4 C 4,7 C 0,0 UV-I 0,0 C 58 % 94 % 0 % 1019,7 hPa 0,0 l/m 0,0 km/h (0 Bft) 0,00 h 0,0 km/h (0 Bft)
19.01.2010 21:00 12,5 C 4,4 C 0,0 UV-I 0,0 C 58 % 94 % 0 % 1019,3 hPa 0,0 l/m 0,0 km/h (0 Bft) 0,00 h 0,0 km/h (0 Bft)
19.01.2010 22:00 12,4 C 4,3 C 0,0 UV-I 0,0 C 58 % 95 % 0 % 1019,1 hPa 0,0 l/m 0,0 km/h (0 Bft) 0,00 h 0,0 km/h (0 Bft)
19.01.2010 23:00 12,4 C 4,3 C 0,0 UV-I 0,0 C 58 % 95 % 0 % 1018,8 hPa 0,0 l/m 0,0 km/h (0 Bft) 0,00 h 0,0 km/h (0 Bft)
20.01.2010 00:00 12,4 C 4,2 C 0,0 UV-I 0,0 C 58 % 95 % 0 % 1018,3 hPa 0,0 l/m 0,0 km/h (0 Bft) 0,00 h 0,0 km/h (0 Bft)
20.01.2010 01:00 12,4 C 4,0 C 0,0 UV-I 0,0 C 58 % 95 % 0 % 1017,7 hPa 0,0 l/m 0,0 km/h (0 Bft) 0,00 h 0,0 km/h (0 Bft)
20.01.2010 02:00 12,4 C 3,9 C 0,0 UV-I 0,0 C 58 % 95 % 0 % 1017,1 hPa 0,0 l/m 0,0 km/h (0 Bft) 0,00 h 0,0 km/h (0 Bft)
20.01.2010 03:00 12,4 C 3,8 C 0,0 UV-I 0,0 C 57 % 96 % 0 % 1016,9 hPa 0,0 l/m 0,0 km/h (0 Bft) 0,00 h 0,0 km/h (0 Bft)
20.01.2010 04:00 12,4 C 3,3 C 0,0 UV-I 0,0 C 57 % 95 % 0 % 1016,3 hPa 0,0 l/m 0,0 km/h (0 Bft) 0,00 h 0,0 km/h (0 Bft)
20.01.2010 05:00 12,4 C 2,5 C 0,0 UV-I 0,0 C 56 % 95 % 0 % 1015,8 hPa 0,0 l/m 0,2 km/h (0 Bft) 0,00 h 0,9 km/h (0 Bft)
20.01.2010 06:00 12,3 C 2,2 C 0,0 UV-I 0,0 C 56 % 95 % 0 % 1015,1 hPa 0,0 l/m 0,1 km/h (0 Bft) 0,00 h 0,5 km/h (0 Bft)
20.01.2010 07:00 12,3 C 2,3 C 0,0 UV-I 0,0 C 55 % 95 % 0 % 1014,5 hPa 0,0 l/m 0,4 km/h (0 Bft) 0,00 h 1,8 km/h (1 Bft)
20.01.2010 08:00 12,4 C 2,4 C 0,0 UV-I 0,0 C 54 % 92 % 0 % 1014,2 hPa 0,0 l/m 0,3 km/h (0 Bft) 0,00 h 1,2 km/h (1 Bft)
20.01.2010 09:00 12,4 C 2,1 C 0,2 UV-I 0,0 C 54 % 91 % 0 % 1013,7 hPa 0,0 l/m 0,2 km/h (0 Bft) 0,00 h 1,1 km/h (1 Bft)
20.01.2010 10:00 12,4 C 2,7 C 0,5 UV-I 5,3 C 54 % 90 % 82 % 1013,6 hPa 0,0 l/m 1,1 km/h (0 Bft) 0,80 h 3,8 km/h (1 Bft)
20.01.2010 11:00 12,4 C 4,6 C 1,1 UV-I 8,0 C 53 % 85 % 100 % 1013,1 hPa 0,0 l/m 2,7 km/h (1 Bft) 0,90 h 6,5 km/h (2 Bft)
20.01.2010 12:00 12,7 C 6,4 C 1,4 UV-I 4,4 C 52 % 77 % 100 % 1012,6 hPa 0,0 l/m 5,1 km/h (1 Bft) 0,93 h 8,0 km/h (2 Bft)
20.01.2010 13:00 13,1 C 7,3 C 1,4 UV-I 4,4 C 51 % 72 % 99 % 1012,4 hPa 0,0 l/m 5,7 km/h (1 Bft) 0,92 h 9,4 km/h (2 Bft)
20.01.2010 14:00 14,3 C 8,0 C 1,1 UV-I 3,0 C 49 % 70 % 76 % 1014,0 hPa 0,0 l/m 5,4 km/h (1 Bft) 0,57 h 8,4 km/h (2 Bft)
20.01.2010 15:00 14,5 C 6,9 C 0,3 UV-I 0,2 C 47 % 73 % 4 % 1012,9 hPa 0,0 l/m 5,3 km/h (1 Bft) 0,00 h 9,1 km/h (2 Bft)
20.01.2010 16:00 13,9 C 5,1 C 0,1 UV-I 0,0 C 48 % 76 % 0 % 1012,3 hPa 0,0 l/m 2,7 km/h (1 Bft) 0,00 h 5,8 km/h (2 Bft)
20.01.2010 17:00 13,2 C 3,9 C 0,0 UV-I 0,0 C 49 % 78 % 0 % 1012,2 hPa 0,0 l/m 2,1 km/h (1 Bft) 0,00 h 5,3 km/h (1 Bft)
20.01.2010 18:00 12,8 C 3,1 C 0,0 UV-I 0,0 C 49 % 81 % 0 % 1012,4 hPa 0,0 l/m 2,1 km/h (1 Bft) 0,00 h 4,8 km/h (1 Bft)
20.01.2010 19:00 12,6 C 2,4 C 0,0 UV-I 0,0 C 50 % 84 % 0 % 1012,8 hPa 0,0 l/m 0,5 km/h (0 Bft) 0,00 h 1,9 km/h (1 Bft)
20.01.2010 20:00 12,5 C 1,9 C 0,0 UV-I 0,0 C 50 % 85 % 0 % 1013,1 hPa 0,0 l/m 0,1 km/h (0 Bft) 0,00 h 0,3 km/h (0 Bft)
20.01.2010 21:00 12,6 C 2,2 C 0,0 UV-I 0,1 C 50 % 86 % 0 % 1013,6 hPa 0,0 l/m 0,7 km/h (0 Bft) 0,00 h 2,6 km/h (1 Bft)
20.01.2010 22:00 12,6 C 2,8 C 0,0 UV-I 0,0 C 50 % 86 % 0 % 1014,0 hPa 0,0 l/m 0,9 km/h (0 Bft) 0,00 h 3,1 km/h (1 Bft)
20.01.2010 23:00 12,6 C 3,3 C 0,0 UV-I 0,0 C 50 % 85 % 0 % 1014,7 hPa 0,0 l/m 1,5 km/h (1 Bft) 0,00 h 4,8 km/h (1 Bft)
21.01.2010 00:00 12,5 C 3,5 C 0,0 UV-I 0,0 C 49 % 84 % 0 % 1015,2 hPa 0,0 l/m 1,1 km/h (0 Bft) 0,00 h 3,4 km/h (1 Bft)
21.01.2010 01:00 12,4 C 3,5 C 0,0 UV-I 0,0 C 48 % 82 % 0 % 1015,3 hPa 0,0 l/m 1,5 km/h (1 Bft) 0,00 h 4,5 km/h (1 Bft)
21.01.2010 02:00 12,4 C 3,3 C 0,0 UV-I 0,0 C 48 % 82 % 0 % 1015,7 hPa 0,0 l/m 1,6 km/h (1 Bft) 0,00 h 5,1 km/h (1 Bft)
21.01.2010 03:00 12,3 C 3,1 C 0,0 UV-I 0,0 C 48 % 82 % 0 % 1016,1 hPa 0,0 l/m 0,7 km/h (0 Bft) 0,00 h 2,0 km/h (1 Bft)
21.01.2010 04:00 12,3 C 2,8 C 0,0 UV-I 0,0 C 48 % 83 % 0 % 1016,6 hPa 0,0 l/m 0,3 km/h (0 Bft) 0,00 h 1,7 km/h (1 Bft)
21.01.2010 05:00 12,2 C 2,8 C 0,0 UV-I 0,0 C 48 % 83 % 0 % 1017,2 hPa 0,0 l/m 0,6 km/h (0 Bft) 0,00 h 1,9 km/h (1 Bft)
21.01.2010 06:00 12,2 C 2,8 C 0,0 UV-I 0,0 C 48 % 84 % 0 % 1017,8 hPa 0,0 l/m 1,8 km/h (1 Bft) 0,00 h 4,3 km/h (1 Bft)
21.01.2010 07:00 12,2 C 2,6 C 0,0 UV-I 0,0 C 48 % 84 % 0 % 1018,1 hPa 0,0 l/m 2,4 km/h (1 Bft) 0,00 h 5,6 km/h (1 Bft)
21.01.2010 08:00 12,3 C 2,7 C 0,0 UV-I 0,0 C 48 % 85 % 0 % 1018,4 hPa 0,0 l/m 2,7 km/h (1 Bft) 0,00 h 4,8 km/h (1 Bft)
21.01.2010 09:00 12,4 C 2,7 C 0,0 UV-I 0,0 C 48 % 85 % 0 % 1019,3 hPa 0,0 l/m 1,2 km/h (1 Bft) 0,00 h 3,6 km/h (1 Bft)
21.01.2010 10:00 12,5 C 3,0 C 0,1 UV-I 0,1 C 49 % 85 % 2 % 1019,7 hPa 0,0 l/m 1,2 km/h (1 Bft) 0,00 h 2,9 km/h (1 Bft)
21.01.2010 11:00 12,6 C 3,5 C 0,3 UV-I 0,2 C 48 % 83 % 5 % 1020,5 hPa 0,0 l/m 2,1 km/h (1 Bft) 0,00 h 4,9 km/h (1 Bft)
21.01.2010 12:00 12,8 C 3,9 C 0,3 UV-I 0,0 C 48 % 82 % 1 % 1020,8 hPa 0,0 l/m 2,7 km/h (1 Bft) 0,00 h 5,1 km/h (1 Bft)
21.01.2010 13:00 12,8 C 4,1 C 0,2 UV-I 0,0 C 48 % 84 % 1 % 1020,5 hPa 0,0 l/m 2,4 km/h (1 Bft) 0,00 h 5,4 km/h (1 Bft)
21.01.2010 14:00 12,8 C 4,3 C 0,2 UV-I 0,1 C 49 % 83 % 3 % 1020,5 hPa 0,0 l/m 2,2 km/h (1 Bft) 0,00 h 5,6 km/h (1 Bft)
21.01.2010 15:00 12,8 C 4,4 C 0,0 UV-I 0,0 C 49 % 82 % 0 % 1020,7 hPa 0,0 l/m 1,4 km/h (1 Bft) 0,00 h 4,1 km/h (1 Bft)
21.01.2010 16:00 12,8 C 4,2 C 0,0 UV-I 0,0 C 49 % 82 % 0 % 1020,9 hPa 0,0 l/m 0,5 km/h (0 Bft) 0,00 h 1,6 km/h (1 Bft)
21.01.2010 17:00 12,8 C 4,0 C 0,0 UV-I 0,0 C 49 % 82 % 0 % 1021,3 hPa 0,0 l/m 0,2 km/h (0 Bft) 0,00 h 0,8 km/h (0 Bft)
21.01.2010 18:00 12,8 C 3,9 C 0,0 UV-I 0,0 C 49 % 83 % 0 % 1021,4 hPa 0,0 l/m 0,2 km/h (0 Bft) 0,00 h 0,6 km/h (0 Bft)
21.01.2010 19:00 12,8 C 3,8 C 0,0 UV-I 0,0 C 49 % 83 % 0 % 1021,9 hPa 0,0 l/m 0,1 km/h (0 Bft) 0,00 h 0,8 km/h (0 Bft)
21.01.2010 20:00 12,8 C 3,7 C 0,0 UV-I 0,0 C 49 % 83 % 0 % 1022,1 hPa 0,0 l/m 0,1 km/h (0 Bft) 0,00 h 0,2 km/h (0 Bft)
21.01.2010 21:00 12,8 C 3,5 C 0,0 UV-I 0,0 C 49 % 84 % 0 % 1022,1 hPa 0,0 l/m 0,1 km/h (0 Bft) 0,00 h 1,0 km/h (0 Bft)
21.01.2010 22:00 12,8 C 3,4 C 0,0 UV-I 0,0 C 49 % 85 % 0 % 1022,1 hPa 0,0 l/m 0,5 km/h (0 Bft) 0,00 h 2,1 km/h (1 Bft)
21.01.2010 23:00 12,7 C 3,2 C 0,0 UV-I 0,0 C 49 % 85 % 0 % 1022,5 hPa 0,0 l/m 0,1 km/h (0 Bft) 0,00 h 1,6 km/h (1 Bft)
22.01.2010 00:00 12,7 C 3,1 C 0,0 UV-I 0,0 C 49 % 86 % 0 % 1022,3 hPa 0,0 l/m 0,2 km/h (0 Bft) 0,00 h 1,7 km/h (1 Bft)
22.01.2010 01:00 12,8 C 3,1 C 0,0 UV-I 0,0 C 49 % 86 % 0 % 1022,3 hPa 0,0 l/m 0,1 km/h (0 Bft) 0,00 h 1,2 km/h (1 Bft)
22.01.2010 02:00 12,8 C 3,0 C 0,0 UV-I 0,0 C 49 % 86 % 0 % 1022,6 hPa 0,0 l/m 0,1 km/h (0 Bft) 0,00 h 0,5 km/h (0 Bft)
22.01.2010 03:00 12,7 C 3,0 C 0,0 UV-I 0,0 C 49 % 87 % 0 % 1022,7 hPa 0,0 l/m 0,2 km/h (0 Bft) 0,00 h 0,9 km/h (0 Bft)
22.01.2010 04:00 12,7 C 3,1 C 0,0 UV-I 0,0 C 49 % 86 % 0 % 1022,6 hPa 0,0 l/m 0,6 km/h (0 Bft) 0,00 h 1,9 km/h (1 Bft)
22.01.2010 05:00 12,8 C 3,0 C 0,0 UV-I 0,0 C 49 % 86 % 0 % 1022,7 hPa 0,0 l/m 0,7 km/h (0 Bft) 0,00 h 1,6 km/h (1 Bft)
22.01.2010 06:00 12,8 C 3,0 C 0,0 UV-I 0,0 C 49 % 87 % 0 % 1023,0 hPa 0,0 l/m 0,1 km/h (0 Bft) 0,00 h 0,8 km/h (0 Bft)
22.01.2010 07:00 12,8 C 3,1 C 0,0 UV-I 0,0 C 48 % 86 % 0 % 1022,9 hPa 0,0 l/m 0,4 km/h (0 Bft) 0,00 h 1,1 km/h (1 Bft)
22.01.2010 08:00 12,6 C 2,9 C 0,0 UV-I 0,0 C 48 % 86 % 0 % 1023,2 hPa 0,0 l/m 0,3 km/h (0 Bft) 0,00 h 1,7 km/h (1 Bft)
22.01.2010 09:00 12,7 C 2,9 C 0,0 UV-I 0,0 C 48 % 86 % 0 % 1023,5 hPa 0,0 l/m 0,6 km/h (0 Bft) 0,00 h 2,5 km/h (1 Bft)
22.01.2010 10:00 12,8 C 3,2 C 0,3 UV-I 0,3 C 49 % 86 % 8 % 1024,0 hPa 0,0 l/m 1,7 km/h (1 Bft) 0,00 h 5,1 km/h (1 Bft)
22.01.2010 11:00 12,9 C 4,5 C 1,1 UV-I 4,7 C 49 % 84 % 95 % 1024,2 hPa 0,0 l/m 3,9 km/h (1 Bft) 0,90 h 7,6 km/h (2 Bft)
22.01.2010 12:00 13,0 C 4,9 C 0,8 UV-I 0,2 C 48 % 81 % 5 % 1023,9 hPa 0,0 l/m 6,1 km/h (2 Bft) 0,00 h 10,0 km/h (2 Bft)
22.01.2010 13:00 13,2 C 5,2 C 0,5 UV-I 0,2 C 48 % 81 % 6 % 1023,7 hPa 0,0 l/m 4,2 km/h (1 Bft) 0,00 h 7,0 km/h (2 Bft)
22.01.2010 14:00 13,1 C 5,2 C 0,1 UV-I 0,0 C 48 % 81 % 0 % 1023,3 hPa 0,0 l/m 2,0 km/h (1 Bft) 0,00 h 4,1 km/h (1 Bft)
22.01.2010 15:00 13,0 C 5,1 C 0,0 UV-I 0,0 C 48 % 81 % 0 % 1023,3 hPa 0,0 l/m 2,7 km/h (1 Bft) 0,00 h 6,1 km/h (2 Bft)
22.01.2010 16:00 12,9 C 4,8 C 0,0 UV-I 0,0 C 48 % 81 % 0 % 1023,5 hPa 0,0 l/m 1,5 km/h (1 Bft) 0,00 h 4,0 km/h (1 Bft)
22.01.2010 17:00 12,7 C 4,5 C 0,0 UV-I 0,0 C 48 % 82 % 0 % 1023,3 hPa 0,0 l/m 0,8 km/h (0 Bft) 0,00 h 2,4 km/h (1 Bft)
22.01.2010 18:00 12,6 C 4,3 C 0,0 UV-I 0,0 C 48 % 83 % 0 % 1023,4 hPa 0,0 l/m 1,0 km/h (0 Bft) 0,00 h 2,7 km/h (1 Bft)
22.01.2010 19:00 12,4 C 4,2 C 0,0 UV-I 0,0 C 48 % 83 % 0 % 1023,9 hPa 0,0 l/m 2,1 km/h (1 Bft) 0,00 h 5,0 km/h (1 Bft)
22.01.2010 20:00 12,4 C 3,8 C 0,0 UV-I 0,0 C 48 % 83 % 0 % 1024,1 hPa 0,0 l/m 2,7 km/h (1 Bft) 0,00 h 4,4 km/h (1 Bft)
22.01.2010 21:00 12,3 C 2,9 C 0,0 UV-I 0,0 C 47 % 84 % 0 % 1024,0 hPa 0,0 l/m 1,4 km/h (1 Bft) 0,00 h 3,7 km/h (1 Bft)
22.01.2010 22:00 12,2 C 2,6 C 0,0 UV-I 0,0 C 48 % 87 % 0 % 1023,8 hPa 0,0 l/m 1,2 km/h (1 Bft) 0,00 h 3,4 km/h (1 Bft)
22.01.2010 23:00 12,2 C 2,8 C 0,0 UV-I 0,0 C 48 % 87 % 0 % 1023,9 hPa 0,0 l/m 1,7 km/h (1 Bft) 0,00 h 5,1 km/h (1 Bft)
23.01.2010 00:00 12,2 C 2,8 C 0,0 UV-I 0,0 C 48 % 85 % 0 % 1023,6 hPa 0,0 l/m 2,7 km/h (1 Bft) 0,00 h 5,5 km/h (1 Bft)
23.01.2010 01:00 12,2 C 2,8 C 0,0 UV-I 0,0 C 47 % 85 % 0 % 1023,4 hPa 0,0 l/m 2,3 km/h (1 Bft) 0,00 h 5,2 km/h (1 Bft)
23.01.2010 02:00 12,1 C 2,6 C 0,0 UV-I 0,0 C 47 % 84 % 0 % 1023,1 hPa 0,0 l/m 1,6 km/h (1 Bft) 0,00 h 4,4 km/h (1 Bft)
23.01.2010 03:00 12,1 C 2,3 C 0,0 UV-I 0,0 C 47 % 84 % 0 % 1022,9 hPa 0,0 l/m 2,0 km/h (1 Bft) 0,00 h 4,9 km/h (1 Bft)
23.01.2010 04:00 12,0 C 2,1 C 0,0 UV-I 0,0 C 47 % 85 % 0 % 1022,6 hPa 0,0 l/m 1,8 km/h (1 Bft) 0,00 h 5,3 km/h (1 Bft)
23.01.2010 05:00 11,9 C 1,7 C 0,0 UV-I 0,0 C 46 % 85 % 0 % 1022,3 hPa 0,0 l/m 2,1 km/h (1 Bft) 0,00 h 5,6 km/h (1 Bft)
23.01.2010 06:00 12,0 C 1,6 C 0,0 UV-I 0,0 C 46 % 85 % 0 % 1022,1 hPa 0,0 l/m 2,3 km/h (1 Bft) 0,00 h 4,9 km/h (1 Bft)
23.01.2010 07:00 11,9 C 1,4 C 0,0 UV-I 0,0 C 46 % 85 % 0 % 1022,0 hPa 0,0 l/m 0,9 km/h (0 Bft) 0,00 h 2,7 km/h (1 Bft)
23.01.2010 08:00 11,8 C 1,0 C 0,0 UV-I 0,0 C 45 % 85 % 0 % 1022,0 hPa 0,0 l/m 1,0 km/h (0 Bft) 0,00 h 2,9 km/h (1 Bft)
23.01.2010 09:00 11,8 C 0,7 C 0,0 UV-I 0,0 C 45 % 85 % 0 % 1022,2 hPa 0,0 l/m 2,2 km/h (1 Bft) 0,00 h 4,4 km/h (1 Bft)
23.01.2010 10:00 11,8 C 0,7 C 0,3 UV-I 0,0 C 45 % 85 % 1 % 1021,9 hPa 0,0 l/m 3,6 km/h (1 Bft) 0,00 h 9,0 km/h (2 Bft)
23.01.2010 11:00 11,9 C 1,2 C 1,0 UV-I 0,2 C 45 % 85 % 6 % 1022,1 hPa 0,0 l/m 4,5 km/h (1 Bft) 0,00 h 8,2 km/h (2 Bft)
23.01.2010 12:00 12,3 C 2,0 C 1,1 UV-I 0,2 C 45 % 83 % 6 % 1022,4 hPa 0,0 l/m 4,6 km/h (1 Bft) 0,00 h 10,5 km/h (2 Bft)
23.01.2010 13:00 12,6 C 2,6 C 1,2 UV-I 0,4 C 44 % 81 % 13 % 1022,2 hPa 0,0 l/m 3,9 km/h (1 Bft) 0,00 h 7,0 km/h (2 Bft)
23.01.2010 14:00 12,6 C 2,5 C 0,6 UV-I 0,0 C 44 % 79 % 0 % 1021,7 hPa 0,0 l/m 3,9 km/h (1 Bft) 0,00 h 8,4 km/h (2 Bft)
23.01.2010 15:00 12,5 C 2,1 C 0,2 UV-I 0,0 C 44 % 79 % 0 % 1021,5 hPa 0,0 l/m 3,2 km/h (1 Bft) 0,00 h 5,2 km/h (1 Bft)
23.01.2010 16:00 12,3 C 1,5 C 0,0 UV-I 0,0 C 43 % 80 % 0 % 1021,2 hPa 0,0 l/m 1,9 km/h (1 Bft) 0,00 h 4,2 km/h (1 Bft)
23.01.2010 17:00 11,9 C 1,0 C 0,0 UV-I 0,0 C 43 % 81 % 0 % 1021,0 hPa 0,0 l/m 1,9 km/h (1 Bft) 0,00 h 4,0 km/h (1 Bft)
23.01.2010 18:00 11,7 C 0,6 C 0,0 UV-I 0,0 C 43 % 82 % 0 % 1020,9 hPa 0,0 l/m 1,8 km/h (1 Bft) 0,00 h 4,4 km/h (1 Bft)
23.01.2010 19:00 11,6 C 0,4 C 0,0 UV-I 0,0 C 43 % 84 % 0 % 1021,3 hPa 0,0 l/m 1,4 km/h (1 Bft) 0,00 h 3,5 km/h (1 Bft)
23.01.2010 20:00 11,6 C 0,4 C 0,0 UV-I 0,0 C 43 % 84 % 0 % 1021,1 hPa 0,0 l/m 2,0 km/h (1 Bft) 0,00 h 4,1 km/h (1 Bft)
23.01.2010 21:00 11,5 C 0,4 C 0,0 UV-I 0,0 C 43 % 85 % 0 % 1021,1 hPa 0,0 l/m 2,4 km/h (1 Bft) 0,00 h 7,0 km/h (2 Bft)
23.01.2010 22:00 11,4 C 0,4 C 0,0 UV-I 0,0 C 43 % 84 % 0 % 1021,0 hPa 0,0 l/m 3,5 km/h (1 Bft) 0,00 h 7,2 km/h (2 Bft)
23.01.2010 23:00 11,4 C 0,3 C 0,0 UV-I 0,0 C 43 % 84 % 0 % 1021,2 hPa 0,0 l/m 2,6 km/h (1 Bft) 0,00 h 6,2 km/h (2 Bft)
24.01.2010 00:00 11,4 C 0,4 C 0,0 UV-I 0,0 C 43 % 85 % 0 % 1021,2 hPa 0,0 l/m 1,6 km/h (1 Bft) 0,00 h 4,3 km/h (1 Bft)
24.01.2010 01:00 11,4 C 0,3 C 0,0 UV-I 0,0 C 43 % 84 % 0 % 1021,0 hPa 0,0 l/m 0,7 km/h (0 Bft) 0,00 h 2,0 km/h (1 Bft)
24.01.2010 02:00 11,4 C 0,4 C 0,0 UV-I 0,0 C 43 % 85 % 0 % 1020,9 hPa 0,0 l/m 0,7 km/h (0 Bft) 0,00 h 1,9 km/h (1 Bft)
24.01.2010 03:00 11,4 C 0,4 C 0,0 UV-I 0,0 C 43 % 85 % 0 % 1020,8 hPa 0,0 l/m 0,7 km/h (0 Bft) 0,00 h 3,0 km/h (1 Bft)
24.01.2010 04:00 11,4 C 0,4 C 0,0 UV-I 0,0 C 44 % 85 % 0 % 1020,8 hPa 0,0 l/m 1,3 km/h (1 Bft) 0,00 h 4,0 km/h (1 Bft)
24.01.2010 05:00 11,3 C 0,3 C 0,0 UV-I 0,0 C 44 % 85 % 0 % 1020,8 hPa 0,0 l/m 0,8 km/h (0 Bft) 0,00 h 2,8 km/h (1 Bft)
24.01.2010 06:00 11,2 C 0,4 C 0,0 UV-I 0,0 C 44 % 86 % 0 % 1020,6 hPa 0,0 l/m 0,8 km/h (0 Bft) 0,00 h 2,7 km/h (1 Bft)
24.01.2010 07:00 11,2 C 0,4 C 0,0 UV-I 0,0 C 44 % 86 % 0 % 1020,8 hPa 0,0 l/m 0,6 km/h (0 Bft) 0,00 h 2,4 km/h (1 Bft)
24.01.2010 08:00 11,2 C 0,4 C 0,0 UV-I 0,0 C 44 % 86 % 0 % 1020,9 hPa 0,0 l/m 0,7 km/h (0 Bft) 0,00 h 2,3 km/h (1 Bft)
24.01.2010 09:00 11,3 C 0,5 C 0,0 UV-I 0,0 C 44 % 87 % 0 % 1021,2 hPa 0,0 l/m 0,6 km/h (0 Bft) 0,00 h 2,6 km/h (1 Bft)
24.01.2010 10:00 11,2 C 0,7 C 0,1 UV-I 0,0 C 44 % 87 % 0 % 1021,4 hPa 0,0 l/m 0,8 km/h (0 Bft) 0,00 h 3,1 km/h (1 Bft)
24.01.2010 11:00 11,4 C 1,0 C 0,2 UV-I 0,0 C 45 % 88 % 0 % 1021,8 hPa 0,0 l/m 0,7 km/h (0 Bft) 0,00 h 1,1 km/h (1 Bft)
24.01.2010 12:00 11,4 C 1,2 C 0,2 UV-I 0,0 C 45 % 88 % 0 % 1021,9 hPa 0,0 l/m 0,7 km/h (0 Bft) 0,00 h 1,5 km/h (1 Bft)
24.01.2010 13:00 11,3 C 1,2 C 0,3 UV-I 0,0 C 46 % 90 % 0 % 1021,8 hPa 0,2 l/m 0,0 km/h (0 Bft) 0,00 h 0,0 km/h (0 Bft)
24.01.2010 14:00 11,4 C 1,1 C 0,2 UV-I 0,0 C 47 % 91 % 0 % 1021,5 hPa 0,3 l/m 0,0 km/h (0 Bft) 0,00 h 0,0 km/h (0 Bft)
24.01.2010 15:00 11,5 C 1,2 C 0,1 UV-I 0,0 C 47 % 92 % 0 % 1021,3 hPa 0,1 l/m 0,0 km/h (0 Bft) 0,00 h 0,0 km/h (0 Bft)
24.01.2010 16:00 11,5 C 1,2 C 0,0 UV-I 0,0 C 48 % 92 % 0 % 1021,5 hPa 0,1 l/m 0,0 km/h (0 Bft) 0,00 h 0,0 km/h (0 Bft)
24.01.2010 17:00 11,3 C 1,1 C 0,0 UV-I 0,0 C 48 % 92 % 0 % 1021,7 hPa 0,1 l/m 0,0 km/h (0 Bft) 0,00 h 0,0 km/h (0 Bft)
24.01.2010 18:00 11,3 C 1,1 C 0,0 UV-I 0,0 C 49 % 93 % 0 % 1021,9 hPa 0,1 l/m 0,0 km/h (0 Bft) 0,00 h 0,0 km/h (0 Bft)
24.01.2010 19:00 11,3 C 0,9 C 0,0 UV-I 0,0 C 49 % 93 % 0 % 1022,2 hPa 0,1 l/m 0,0 km/h (0 Bft) 0,00 h 0,0 km/h (0 Bft)
24.01.2010 20:00 11,2 C 0,8 C 0,0 UV-I 0,0 C 49 % 93 % 0 % 1022,4 hPa 0,0 l/m 0,0 km/h (0 Bft) 0,00 h 0,0 km/h (0 Bft)
24.01.2010 21:00 11,1 C 0,6 C 0,0 UV-I 0,0 C 49 % 94 % 0 % 1022,4 hPa 0,1 l/m 0,0 km/h (0 Bft) 0,00 h 0,0 km/h (0 Bft)
24.01.2010 22:00 11,2 C 0,7 C 0,0 UV-I 0,0 C 49 % 94 % 0 % 1022,4 hPa 0,1 l/m 0,0 km/h (0 Bft) 0,00 h 0,0 km/h (0 Bft)
24.01.2010 23:00 11,2 C 0,7 C 0,0 UV-I 0,0 C 50 % 94 % 0 % 1022,8 hPa 0,2 l/m 0,0 km/h (0 Bft) 0,00 h 0,0 km/h (0 Bft)
Min-Datum _ 24.01.10 23.01.10 18.01.10 18.01.10 23.01.10 20.01.10 18.01.10 20.01.10 - 18.01.10 - 18.01.10
_ Min-Zeit 08:28 19:56 00:00 00:00 16:26 14:28 00:00 16:52 - 04:58 - 00:24
Minimum _ 11,1 C 0,3 C 0,0 UV-I 0,0 C 43 % 69 % 0 % 1011,9 hPa - 0,0 km/h (0 Bft) - 0,0 km/h (0 Bft)
Max-Datum _ 20.01.10 20.01.10 20.01.10 20.01.10 19.01.10 19.01.10 20.01.10 18.01.10 19.01.10 22.01.10 20.01.10 23.01.10
_ Max-Zeit 14:52 14:22 12:16 11:20 05:14 11:30 10:14 11:14 05:02 12:08 10:10 11:52
Maximum _ 14,7 C 8,3 C 1,6 UV-I 9,6 C 59 % 97 % 100 % 1024,4 hPa 0,4 l/m 7,9 km/h
N-NO (2 Bft)
0,03 h 22,1 km/h
NO (4 Bft)
Durchschnitt _ 12,2 C 3,2 C 0,1 UV-I 0,2 C 51 % 88 % 4 % 1020,7 hPa #2,1 l/m 1,6 km/h (1 Bft) #5:01 h 3,5 km/h (1 Bft)
© 2012 W. Hausmann